Time;durP1;ratioP1;P1;durP2;ratioP2;P2;SDS_P1;SDS_P2;PMS_P1;PMS_P2;Temp;Humidity;BMP_temperature;BMP_pressure;BME280_temperature;BME280_humidity;BME280_pressure;Samples;Min_cycle;Max_cycle;Signal;HPM_P1;HPM_P2
2021/11/22 00:00:31;;;;;;;24.40;15.02;;;;;;;;;;4972385;28;20051;-66
2021/11/22 00:02:59;;;;;;;20.55;12.70;;;;;;;;;;4972605;28;20473;-66
2021/11/22 00:05:26;;;;;;;21.58;12.93;;;;;;;;;;4972635;28;20050;-66
2021/11/22 00:07:53;;;;;;;19.85;12.88;;;;;;;;;;4972497;28;20050;-66
2021/11/22 00:10:20;;;;;;;21.40;13.20;;;;;;;;;;4973567;28;20058;-66
2021/11/22 00:12:46;;;;;;;23.40;13.35;;;;;;;;;;4976156;28;20471;-66
2021/11/22 00:15:14;;;;;;;23.88;13.98;;;;;;;;;;4975996;28;20047;-66
2021/11/22 00:17:41;;;;;;;23.25;13.38;;;;;;;;;;4976164;28;20121;-66
2021/11/22 00:20:10;;;;;;;24.02;14.20;;;;;;;;;;4958841;28;20051;-67
2021/11/22 00:22:37;;;;;;;25.40;14.02;;;;;;;;;;4975790;28;20047;-66
2021/11/22 00:25:05;;;;;;;26.15;14.25;;;;;;;;;;4958995;28;20051;-66
2021/11/22 00:27:31;;;;;;;27.60;14.82;;;;;;;;;;4975910;28;20661;-66
2021/11/22 00:29:58;;;;;;;28.40;15.20;;;;;;;;;;4978551;28;20046;-66
2021/11/22 00:32:25;;;;;;;26.92;14.75;;;;;;;;;;4975427;28;20512;-66
2021/11/22 00:34:56;;;;;;;27.13;14.40;;;;;;;;;;4975635;28;20047;-66
2021/11/22 00:37:25;;;;;;;27.08;14.10;;;;;;;;;;4975959;28;20055;-66
2021/11/22 00:39:52;;;;;;;30.77;15.00;;;;;;;;;;4975702;28;20106;-67
2021/11/22 00:42:18;;;;;;;31.25;14.32;;;;;;;;;;4975635;28;20058;-66
2021/11/22 00:44:45;;;;;;;28.20;14.95;;;;;;;;;;4976032;28;20098;-66
2021/11/22 00:47:12;;;;;;;30.15;14.48;;;;;;;;;;4975783;28;20114;-66
2021/11/22 00:49:38;;;;;;;27.15;13.85;;;;;;;;;;4975335;28;20520;-66
2021/11/22 00:52:05;;;;;;;31.58;14.40;;;;;;;;;;4975256;28;20055;-66
2021/11/22 00:54:33;;;;;;;31.10;14.43;;;;;;;;;;4984819;28;20100;-66
2021/11/22 00:56:59;;;;;;;31.02;15.10;;;;;;;;;;4994829;28;20100;-66
2021/11/22 00:59:27;;;;;;;29.90;16.25;;;;;;;;;;4994581;28;20072;-66
2021/11/22 01:01:53;;;;;;;31.05;15.55;;;;;;;;;;4994712;28;20054;-66
2021/11/22 01:04:20;;;;;;;30.23;16.15;;;;;;;;;;4994625;28;20072;-66
2021/11/22 01:06:47;;;;;;;32.38;15.95;;;;;;;;;;4994659;28;20563;-66
2021/11/22 01:09:14;;;;;;;33.38;15.35;;;;;;;;;;4994348;28;20055;-66
2021/11/22 01:11:41;;;;;;;30.77;15.13;;;;;;;;;;4994224;28;20117;-66
2021/11/22 01:14:08;;;;;;;28.40;15.48;;;;;;;;;;4994588;28;20058;-66
2021/11/22 01:16:36;;;;;;;35.20;15.07;;;;;;;;;;4994285;28;20050;-66
2021/11/22 01:19:04;;;;;;;32.58;15.15;;;;;;;;;;4994305;28;20050;-66
2021/11/22 01:21:31;;;;;;;31.30;15.88;;;;;;;;;;4993819;28;20058;-66
2021/11/22 01:23:58;;;;;;;31.02;15.27;;;;;;;;;;4994423;28;20050;-66
2021/11/22 01:26:25;;;;;;;30.77;16.20;;;;;;;;;;4994241;28;20105;-66
2021/11/22 01:28:52;;;;;;;33.92;15.90;;;;;;;;;;4994043;28;20081;-66
2021/11/22 01:31:18;;;;;;;36.42;15.45;;;;;;;;;;4977484;28;20109;-66
2021/11/22 01:33:45;;;;;;;30.65;15.00;;;;;;;;;;4974541;28;20047;-66
2021/11/22 01:36:12;;;;;;;31.33;15.30;;;;;;;;;;4974603;28;20047;-66
2021/11/22 01:38:38;;;;;;;31.60;14.70;;;;;;;;;;4974490;28;20085;-66
2021/11/22 01:41:05;;;;;;;29.80;15.30;;;;;;;;;;4974396;28;20441;-66
2021/11/22 01:43:33;;;;;;;27.33;14.35;;;;;;;;;;4974365;28;20058;-66
2021/11/22 01:45:59;;;;;;;33.35;14.65;;;;;;;;;;4973696;28;20046;-66
2021/11/22 01:48:26;;;;;;;28.70;14.38;;;;;;;;;;4974472;28;20055;-66
2021/11/22 01:50:53;;;;;;;28.92;15.52;;;;;;;;;;4974703;28;20051;-67
2021/11/22 01:53:22;;;;;;;27.92;14.63;;;;;;;;;;4974367;28;20051;-67
2021/11/22 01:55:53;;;;;;;25.05;14.57;;;;;;;;;;4974462;28;20174;-66
2021/11/22 01:58:20;;;;;;;33.20;15.50;;;;;;;;;;4974154;28;20050;-67
2021/11/22 02:00:51;;;;;;;29.38;15.07;;;;;;;;;;4973994;28;20102;-66
2021/11/22 02:03:18;;;;;;;25.65;13.13;;;;;;;;;;4974371;28;20063;-66
2021/11/22 02:05:45;;;;;;;30.63;15.27;;;;;;;;;;4956991;28;20054;-66
2021/11/22 02:08:12;;;;;;;29.38;15.18;;;;;;;;;;4973994;28;20051;-66
2021/11/22 02:10:40;;;;;;;36.35;17.70;;;;;;;;;;4973969;28;20106;-67
2021/11/22 02:13:06;;;;;;;35.65;16.55;;;;;;;;;;4973917;28;20468;-66
2021/11/22 02:15:33;;;;;;;30.95;15.63;;;;;;;;;;4973816;28;20054;-66
2021/11/22 02:18:00;;;;;;;28.60;15.75;;;;;;;;;;4974022;28;20050;-66
2021/11/22 02:20:28;;;;;;;37.28;19.55;;;;;;;;;;4973537;28;20114;-66
2021/11/22 02:22:57;;;;;;;36.45;17.08;;;;;;;;;;4973608;28;20457;-67
2021/11/22 02:25:26;;;;;;;32.35;16.80;;;;;;;;;;4973716;28;20046;-66
2021/11/22 02:27:53;;;;;;;27.35;15.57;;;;;;;;;;4986935;28;20509;-67
2021/11/22 02:30:22;;;;;;;33.67;16.80;;;;;;;;;;4992708;28;20101;-66
2021/11/22 02:32:48;;;;;;;33.65;17.00;;;;;;;;;;4992721;28;20054;-66
2021/11/22 02:35:20;;;;;;;32.72;16.02;;;;;;;;;;4975167;28;20076;-66
2021/11/22 02:37:47;;;;;;;36.70;17.35;;;;;;;;;;4993077;28;20136;-66
2021/11/22 02:40:13;;;;;;;36.40;17.48;;;;;;;;;;4977934;28;20055;-66
2021/11/22 02:42:42;;;;;;;33.50;17.10;;;;;;;;;;4973348;28;20055;-66
2021/11/22 02:45:10;;;;;;;40.42;17.80;;;;;;;;;;4973550;28;20136;-66
2021/11/22 02:47:37;;;;;;;37.60;18.92;;;;;;;;;;4973617;28;20055;-66
2021/11/22 02:50:04;;;;;;;41.75;18.85;;;;;;;;;;4986201;28;20046;-66
2021/11/22 02:52:31;;;;;;;42.63;19.02;;;;;;;;;;4992556;28;20132;-66
2021/11/22 02:54:58;;;;;;;40.58;18.73;;;;;;;;;;4992684;28;20497;-66
2021/11/22 02:57:24;;;;;;;46.25;18.48;;;;;;;;;;4992708;28;20054;-66
2021/11/22 02:59:51;;;;;;;40.80;19.02;;;;;;;;;;4988658;28;20050;-66
2021/11/22 03:02:17;;;;;;;40.85;18.45;;;;;;;;;;4985322;28;20430;-66
2021/11/22 03:04:44;;;;;;;40.33;19.35;;;;;;;;;;4973368;28;20055;-66
2021/11/22 03:07:11;;;;;;;41.42;19.92;;;;;;;;;;4973248;28;20046;-66
2021/11/22 03:09:39;;;;;;;46.75;20.35;;;;;;;;;;4982132;28;20517;-66
2021/11/22 03:12:08;;;;;;;41.45;19.33;;;;;;;;;;4992394;28;20460;-66
2021/11/22 03:14:34;;;;;;;41.75;18.45;;;;;;;;;;4992470;28;20050;-66
2021/11/22 03:17:01;;;;;;;37.55;18.98;;;;;;;;;;4975245;28;20047;-66
2021/11/22 03:19:29;;;;;;;39.25;18.95;;;;;;;;;;4992111;28;20053;-66
2021/11/22 03:21:56;;;;;;;44.33;20.38;;;;;;;;;;4992248;28;20050;-66
2021/11/22 03:24:22;;;;;;;45.60;19.80;;;;;;;;;;4992370;28;20058;-67
2021/11/22 03:26:49;;;;;;;39.55;18.45;;;;;;;;;;4992515;28;20452;-67
2021/11/22 03:29:16;;;;;;;37.92;18.90;;;;;;;;;;4986676;28;20046;-67
2021/11/22 03:31:43;;;;;;;38.92;18.08;;;;;;;;;;4972727;28;20478;-66
2021/11/22 03:34:11;;;;;;;42.28;20.73;;;;;;;;;;4972948;28;20087;-66
2021/11/22 03:36:39;;;;;;;41.17;18.98;;;;;;;;;;4972851;28;20055;-66
2021/11/22 03:39:11;;;;;;;44.05;20.02;;;;;;;;;;4976562;28;20096;-66
2021/11/22 03:41:38;;;;;;;37.47;19.50;;;;;;;;;;4992134;28;20051;-66
2021/11/22 03:44:11;;;;;;;40.42;20.90;;;;;;;;;;4992454;28;20109;-66
2021/11/22 03:46:39;;;;;;;40.45;20.08;;;;;;;;;;4995787;28;20054;-66
2021/11/22 03:49:05;;;;;;;41.15;20.45;;;;;;;;;;4996147;28;20081;-66
2021/11/22 03:51:32;;;;;;;45.30;22.15;;;;;;;;;;4995940;28;20572;-66
2021/11/22 03:53:59;;;;;;;46.03;20.65;;;;;;;;;;4996084;28;20097;-66
2021/11/22 03:56:25;;;;;;;45.92;21.20;;;;;;;;;;4995842;28;20461;-66
2021/11/22 03:58:52;;;;;;;44.40;20.95;;;;;;;;;;4996013;28;20097;-66
2021/11/22 04:01:19;;;;;;;50.90;22.25;;;;;;;;;;4995561;28;20054;-66
2021/11/22 04:03:47;;;;;;;45.33;22.90;;;;;;;;;;4995953;28;20061;-66
2021/11/22 04:06:15;;;;;;;47.92;22.92;;;;;;;;;;4995888;28;20496;-66
2021/11/22 04:08:42;;;;;;;51.85;21.25;;;;;;;;;;4978684;28;20493;-67
2021/11/22 04:11:09;;;;;;;46.53;21.90;;;;;;;;;;4976132;28;20054;-67
2021/11/22 04:13:35;;;;;;;44.78;21.55;;;;;;;;;;4976382;28;20058;-66
2021/11/22 04:16:02;;;;;;;46.30;21.83;;;;;;;;;;4976132;28;20126;-67
2021/11/22 04:18:29;;;;;;;50.38;22.33;;;;;;;;;;4976071;28;20046;-67
2021/11/22 04:20:56;;;;;;;51.58;23.85;;;;;;;;;;4975865;28;20051;-67
2021/11/22 04:23:23;;;;;;;51.65;22.13;;;;;;;;;;4975981;28;20085;-66
2021/11/22 04:25:50;;;;;;;50.22;22.55;;;;;;;;;;4976088;28;20074;-66
2021/11/22 04:28:16;;;;;;;51.08;22.10;;;;;;;;;;4975971;28;20054;-66
2021/11/22 04:30:43;;;;;;;56.85;23.35;;;;;;;;;;4989538;23;20137;-66
2021/11/22 04:33:10;;;;;;;49.80;20.95;;;;;;;;;;4975660;28;20078;-65
2021/11/22 04:35:37;;;;;;;50.00;22.58;;;;;;;;;;4975763;28;20560;-66
2021/11/22 04:38:04;;;;;;;53.33;22.35;;;;;;;;;;4975825;28;20051;-65
2021/11/22 04:40:30;;;;;;;51.85;20.35;;;;;;;;;;4975620;28;20501;-66
2021/11/22 04:42:57;;;;;;;51.17;21.40;;;;;;;;;;4958345;28;20137;-65
2021/11/22 04:45:29;;;;;;;59.28;22.88;;;;;;;;;;4975563;28;20051;-65
2021/11/22 04:47:57;;;;;;;52.30;20.83;;;;;;;;;;4975529;28;20050;-65
2021/11/22 04:50:24;;;;;;;50.85;20.50;;;;;;;;;;4975460;28;20101;-65
2021/11/22 04:52:51;;;;;;;49.75;21.60;;;;;;;;;;4975486;28;20046;-66
2021/11/22 04:55:19;;;;;;;52.75;21.02;;;;;;;;;;4975410;28;20132;-65
2021/11/22 04:57:46;;;;;;;49.92;20.90;;;;;;;;;;4969840;28;20094;-64
2021/11/22 05:00:14;;;;;;;49.60;21.10;;;;;;;;;;4955763;29;20055;-66
2021/11/22 05:02:42;;;;;;;49.78;20.85;;;;;;;;;;4955946;29;20134;-66
2021/11/22 05:05:09;;;;;;;50.67;21.05;;;;;;;;;;4955977;29;20055;-66
2021/11/22 05:07:36;;;;;;;47.47;20.23;;;;;;;;;;4959286;28;20046;-65
2021/11/22 05:10:19;;;;;;;52.58;20.73;;;;;;;;;;4974994;28;20061;-66
2021/11/22 05:12:46;;;;;;;53.72;21.52;;;;;;;;;;4975131;28;20626;-65
2021/11/22 05:15:13;;;;;;;53.28;21.02;;;;;;;;;;4974939;28;20051;-66
2021/11/22 05:17:41;;;;;;;55.25;20.98;;;;;;;;;;4971323;28;20494;-65
2021/11/22 05:20:08;;;;;;;52.13;21.30;;;;;;;;;;4955481;29;20055;-65
2021/11/22 05:22:34;;;;;;;43.30;19.98;;;;;;;;;;4955558;29;20125;-64
2021/11/22 05:25:03;;;;;;;48.92;21.35;;;;;;;;;;4958990;28;20560;-66
2021/11/22 05:27:30;;;;;;;49.33;21.10;;;;;;;;;;4974866;28;20453;-66
2021/11/22 05:29:57;;;;;;;53.60;20.98;;;;;;;;;;4974584;28;20113;-65
2021/11/22 05:32:23;;;;;;;52.33;21.38;;;;;;;;;;4974645;28;20098;-66
2021/11/22 05:34:54;;;;;;;49.53;20.67;;;;;;;;;;4974419;28;20051;-66
2021/11/22 05:37:21;;;;;;;63.28;21.55;;;;;;;;;;4974681;28;20050;-66
2021/11/22 05:39:48;;;;;;;55.35;22.25;;;;;;;;;;4974792;28;20457;-65
2021/11/22 05:42:16;;;;;;;52.97;21.52;;;;;;;;;;4974349;28;20058;-67
2021/11/22 05:44:43;;;;;;;50.92;20.55;;;;;;;;;;4974641;28;20549;-67
2021/11/22 05:47:11;;;;;;;48.85;19.35;;;;;;;;;;4974689;28;20059;-65
2021/11/22 05:49:38;;;;;;;50.40;20.27;;;;;;;;;;4974401;28;20051;-67
2021/11/22 05:52:05;;;;;;;47.78;20.88;;;;;;;;;;4974187;28;20497;-66
2021/11/22 05:54:33;;;;;;;45.42;19.15;;;;;;;;;;4974450;28;20482;-68
2021/11/22 05:57:01;;;;;;;56.47;21.10;;;;;;;;;;4974004;28;20097;-66
2021/11/22 05:59:28;;;;;;;49.55;20.10;;;;;;;;;;4974221;28;20133;-67
2021/11/22 06:01:55;;;;;;;50.25;20.38;;;;;;;;;;4974141;28;20058;-66
2021/11/22 06:04:22;;;;;;;44.22;18.38;;;;;;;;;;4974167;28;20089;-66
2021/11/22 06:06:48;;;;;;;47.83;18.85;;;;;;;;;;4974159;28;20549;-66
2021/11/22 06:09:15;;;;;;;40.83;18.85;;;;;;;;;;4973863;28;20100;-66
2021/11/22 06:11:43;;;;;;;43.55;18.15;;;;;;;;;;4956960;28;20104;-65
2021/11/22 06:14:10;;;;;;;40.83;17.95;;;;;;;;;;4973976;28;20055;-65
2021/11/22 06:16:36;;;;;;;42.10;17.85;;;;;;;;;;4974066;28;20046;-65
2021/11/22 06:19:03;;;;;;;42.92;17.50;;;;;;;;;;4973858;28;20051;-66
2021/11/22 06:21:30;;;;;;;41.03;17.73;;;;;;;;;;4972484;28;20074;-65
2021/11/22 06:23:59;;;;;;;43.38;18.38;;;;;;;;;;4973835;28;20129;-66
2021/11/22 06:26:25;;;;;;;39.45;17.58;;;;;;;;;;4963561;28;20133;-67
2021/11/22 06:28:52;;;;;;;37.92;17.33;;;;;;;;;;4963246;28;20137;-67
2021/11/22 06:31:20;;;;;;;44.55;17.65;;;;;;;;;;4982103;28;20046;-67
2021/11/22 06:33:46;;;;;;;42.55;17.38;;;;;;;;;;4974883;28;20069;-69
2021/11/22 06:36:13;;;;;;;34.25;17.08;;;;;;;;;;4972476;28;20094;-68
2021/11/22 06:38:40;;;;;;;46.45;18.27;;;;;;;;;;4979083;28;20054;-68
2021/11/22 06:41:06;;;;;;;41.75;18.02;;;;;;;;;;4978579;28;20050;-68
2021/11/22 06:43:33;;;;;;;39.67;16.00;;;;;;;;;;4960526;28;20565;-68
2021/11/22 06:46:00;;;;;;;41.08;18.90;;;;;;;;;;4954026;29;20118;-68
2021/11/22 06:48:27;;;;;;;33.80;16.05;;;;;;;;;;4954071;29;20082;-68
2021/11/22 06:50:53;;;;;;;41.47;16.73;;;;;;;;;;4936669;29;20498;-68
2021/11/22 06:53:21;;;;;;;38.67;17.05;;;;;;;;;;4953937;29;20499;-69
2021/11/22 06:55:49;;;;;;;32.42;14.88;;;;;;;;;;4954001;29;20047;-69
2021/11/22 06:58:16;;;;;;;35.70;16.63;;;;;;;;;;4954230;28;20498;-68
2021/11/22 07:00:43;;;;;;;29.70;14.68;;;;;;;;;;4966987;28;20098;-65
2021/11/22 07:03:10;;;;;;;30.55;15.55;;;;;;;;;;4967617;28;20054;-65
2021/11/22 07:05:37;;;;;;;27.63;14.25;;;;;;;;;;4960679;28;20054;-67
2021/11/22 07:08:06;;;;;;;29.15;13.80;;;;;;;;;;4965772;28;20663;-67
2021/11/22 07:10:33;;;;;;;33.83;14.95;;;;;;;;;;4956990;28;20055;-67
2021/11/22 07:13:00;;;;;;;26.73;14.43;;;;;;;;;;4959538;28;20055;-67
2021/11/22 07:15:34;;;;;;;28.83;13.57;;;;;;;;;;4957121;28;20609;-67
2021/11/22 07:18:00;;;;;;;25.02;13.30;;;;;;;;;;4956903;28;20122;-67
2021/11/22 07:20:27;;;;;;;25.90;12.85;;;;;;;;;;4958224;28;20142;-67
2021/11/22 07:22:54;;;;;;;31.38;14.73;;;;;;;;;;4956711;28;20059;-67
2021/11/22 07:25:20;;;;;;;26.83;13.20;;;;;;;;;;4963885;28;20125;-67
2021/11/22 07:27:48;;;;;;;28.63;14.07;;;;;;;;;;4956908;28;20077;-67
2021/11/22 07:30:19;;;;;;;29.15;13.30;;;;;;;;;;4959579;28;20047;-67
2021/11/22 07:32:46;;;;;;;29.08;14.63;;;;;;;;;;4956472;28;20517;-67
2021/11/22 07:35:14;;;;;;;28.85;13.98;;;;;;;;;;4941477;28;20143;-67
2021/11/22 07:37:41;;;;;;;31.05;14.98;;;;;;;;;;4964718;28;20882;-66
2021/11/22 07:40:08;;;;;;;30.45;13.20;;;;;;;;;;4961426;28;20051;-66
2021/11/22 07:42:35;;;;;;;28.13;12.88;;;;;;;;;;4960522;28;20051;-67
2021/11/22 07:45:01;;;;;;;25.00;12.70;;;;;;;;;;4961759;28;20051;-67
2021/11/22 07:47:28;;;;;;;27.23;12.13;;;;;;;;;;4959947;28;20055;-67
2021/11/22 07:49:55;;;;;;;24.27;11.60;;;;;;;;;;4961972;28;20050;-66
2021/11/22 07:52:23;;;;;;;24.90;11.25;;;;;;;;;;4960569;28;20058;-66
2021/11/22 07:54:50;;;;;;;23.30;11.85;;;;;;;;;;4956354;28;20055;-67
2021/11/22 07:57:17;;;;;;;25.30;12.02;;;;;;;;;;4957188;28;20180;-67
2021/11/22 07:59:44;;;;;;;28.20;12.80;;;;;;;;;;4956306;28;20050;-67
2021/11/22 08:02:10;;;;;;;25.45;11.38;;;;;;;;;;4963248;28;20058;-66
2021/11/22 08:04:37;;;;;;;21.88;11.43;;;;;;;;;;4956939;28;20069;-68
2021/11/22 08:07:12;;;;;;;20.90;11.65;;;;;;;;;;4958146;28;20110;-68
2021/11/22 08:09:44;;;;;;;25.60;10.73;;;;;;;;;;4962858;28;20114;-67
2021/11/22 08:12:24;;;;;;;22.25;11.48;;;;;;;;;;4956024;28;20101;-67
2021/11/22 08:14:52;;;;;;;20.33;11.63;;;;;;;;;;4958319;28;20051;-67
2021/11/22 08:17:19;;;;;;;21.63;12.00;;;;;;;;;;4957107;28;20039;-67
2021/11/22 08:19:46;;;;;;;20.48;11.68;;;;;;;;;;4928823;28;20113;-67
2021/11/22 08:22:12;;;;;;;20.95;11.45;;;;;;;;;;4928380;28;20145;-67
2021/11/22 08:24:39;;;;;;;23.17;11.73;;;;;;;;;;4957944;28;20043;-67
2021/11/22 08:27:06;;;;;;;22.83;12.15;;;;;;;;;;4957621;28;20114;-67
2021/11/22 08:29:34;;;;;;;24.50;12.57;;;;;;;;;;4958909;28;20055;-67
2021/11/22 08:32:01;;;;;;;25.05;11.90;;;;;;;;;;4959020;28;20050;-67
2021/11/22 08:34:27;;;;;;;20.25;11.10;;;;;;;;;;4959453;28;20054;-67
2021/11/22 08:36:54;;;;;;;25.65;12.18;;;;;;;;;;4958821;28;20051;-67
2021/11/22 08:39:21;;;;;;;26.70;12.38;;;;;;;;;;4959161;28;20051;-67
2021/11/22 08:41:47;;;;;;;23.80;11.88;;;;;;;;;;4961811;28;20054;-67
2021/11/22 08:44:14;;;;;;;23.08;11.05;;;;;;;;;;4959368;28;20057;-67
2021/11/22 08:46:41;;;;;;;25.83;11.85;;;;;;;;;;4961580;28;20468;-67
2021/11/22 08:49:08;;;;;;;21.23;11.77;;;;;;;;;;4959976;28;20449;-66
2021/11/22 08:51:35;;;;;;;22.52;11.77;;;;;;;;;;4960081;28;20587;-66
2021/11/22 08:54:02;;;;;;;22.73;11.32;;;;;;;;;;4962283;28;20051;-68
2021/11/22 08:56:30;;;;;;;25.70;11.73;;;;;;;;;;4962862;28;20113;-66
2021/11/22 08:58:56;;;;;;;24.33;11.93;;;;;;;;;;4960961;28;20063;-65
2021/11/22 09:01:23;;;;;;;22.65;11.32;;;;;;;;;;4960898;28;20050;-65
2021/11/22 09:03:51;;;;;;;20.15;11.15;;;;;;;;;;4959065;28;20051;-67
2021/11/22 09:06:19;;;;;;;22.10;11.15;;;;;;;;;;4962641;28;20685;-67
2021/11/22 09:08:46;;;;;;;23.00;10.68;;;;;;;;;;4960783;28;20110;-67
2021/11/22 09:11:13;;;;;;;19.33;10.70;;;;;;;;;;4958724;28;20047;-67
2021/11/22 09:13:40;;;;;;;18.73;10.73;;;;;;;;;;4962141;28;20105;-67
2021/11/22 09:16:07;;;;;;;18.88;10.75;;;;;;;;;;4961888;28;20063;-67
2021/11/22 09:18:35;;;;;;;20.08;10.70;;;;;;;;;;4960800;28;20043;-69
2021/11/22 09:21:03;;;;;;;25.83;11.52;;;;;;;;;;4958930;28;20125;-68
2021/11/22 09:23:31;;;;;;;21.85;11.38;;;;;;;;;;4960653;28;20082;-68
2021/11/22 09:25:59;;;;;;;16.67;10.48;;;;;;;;;;4959034;28;20074;-69
2021/11/22 09:28:26;;;;;;;19.13;10.70;;;;;;;;;;4942722;28;20058;-68
2021/11/22 09:30:52;;;;;;;18.50;9.93;;;;;;;;;;4958970;28;20129;-68
2021/11/22 09:33:19;;;;;;;20.33;10.65;;;;;;;;;;4959357;28;20105;-68
2021/11/22 09:35:45;;;;;;;19.83;10.00;;;;;;;;;;4959700;28;20109;-68
2021/11/22 09:38:12;;;;;;;18.85;10.68;;;;;;;;;;4958904;28;20135;-66
2021/11/22 09:40:39;;;;;;;17.80;10.20;;;;;;;;;;4959861;28;20051;-66
2021/11/22 09:43:06;;;;;;;17.80;10.50;;;;;;;;;;4957921;28;20059;-67
2021/11/22 09:45:33;;;;;;;16.08;9.30;;;;;;;;;;4960790;28;20051;-66
2021/11/22 09:48:03;;;;;;;17.67;9.90;;;;;;;;;;4949663;28;20055;-70
2021/11/22 09:50:30;;;;;;;17.73;10.15;;;;;;;;;;4948856;28;20043;-69
2021/11/22 09:52:58;;;;;;;20.23;10.60;;;;;;;;;;4958306;28;20062;-70
2021/11/22 09:55:29;;;;;;;14.80;9.95;;;;;;;;;;4962024;28;20109;-68
2021/11/22 09:57:58;;;;;;;13.80;9.13;;;;;;;;;;4965433;28;20047;-71
2021/11/22 10:00:32;;;;;;;20.98;11.43;;;;;;;;;;4960162;28;20055;-67
2021/11/22 10:02:59;;;;;;;20.08;9.95;;;;;;;;;;4944625;28;20054;-70
2021/11/22 10:05:30;;;;;;;14.40;9.70;;;;;;;;;;4962943;28;20134;-66
2021/11/22 10:07:59;;;;;;;14.77;9.50;;;;;;;;;;4961450;28;20576;-66
2021/11/22 10:10:34;;;;;;;17.10;9.35;;;;;;;;;;4963608;28;20059;-71
2021/11/22 10:13:17;;;;;;;16.63;9.45;;;;;;;;;;4946028;28;20051;-69
2021/11/22 10:15:44;;;;;;;16.92;9.38;;;;;;;;;;4961460;28;20059;-70
2021/11/22 10:18:21;;;;;;;13.57;8.45;;;;;;;;;;4962154;28;20553;-70
2021/11/22 10:20:48;;;;;;;15.18;8.80;;;;;;;;;;4959508;28;20106;-71
2021/11/22 10:23:26;;;;;;;14.18;8.43;;;;;;;;;;4961607;28;20043;-70
2021/11/22 10:25:54;;;;;;;18.52;9.55;;;;;;;;;;4943876;28;20055;-70
2021/11/22 10:28:25;;;;;;;16.83;8.88;;;;;;;;;;4945450;28;20042;-71
2021/11/22 10:31:01;;;;;;;13.77;8.98;;;;;;;;;;4956995;28;20662;-71
2021/11/22 10:33:33;;;;;;;16.80;8.82;;;;;;;;;;4943994;28;20055;-71
2021/11/22 10:36:05;;;;;;;15.60;9.85;;;;;;;;;;4944444;28;20552;-72
2021/11/22 10:38:34;;;;;;;16.50;10.00;;;;;;;;;;4959355;28;20521;-71
2021/11/22 10:41:12;;;;;;;16.02;9.43;;;;;;;;;;4961050;28;20059;-71
2021/11/22 10:43:53;;;;;;;14.93;8.75;;;;;;;;;;4930392;28;20494;-71
2021/11/22 10:46:56;;;;;;;16.33;9.30;;;;;;;;;;4945269;28;20605;-65
2021/11/22 10:49:39;;;;;;;15.80;8.75;;;;;;;;;;4960745;28;20442;-65
2021/11/22 10:52:13;;;;;;;17.55;8.20;;;;;;;;;;4959539;28;21490;-65
2021/11/22 10:54:55;;;;;;;15.40;9.70;;;;;;;;;;4961005;28;20490;-65
2021/11/22 10:57:22;;;;;;;15.63;8.77;;;;;;;;;;4958300;28;20498;-69
2021/11/22 10:59:49;;;;;;;16.65;7.90;;;;;;;;;;4959557;28;20059;-68
2021/11/22 11:02:15;;;;;;;13.73;8.15;;;;;;;;;;4965202;28;20050;-66
2021/11/22 11:04:43;;;;;;;17.17;9.50;;;;;;;;;;4959769;28;20051;-68
2021/11/22 11:07:11;;;;;;;16.38;9.27;;;;;;;;;;4960260;28;20047;-65
2021/11/22 11:09:50;;;;;;;16.92;8.27;;;;;;;;;;4960255;28;20046;-66
2021/11/22 11:12:24;;;;;;;17.00;9.63;;;;;;;;;;4961107;28;20051;-66
2021/11/22 11:14:53;;;;;;;17.23;9.18;;;;;;;;;;4963011;28;20051;-69
2021/11/22 11:17:30;;;;;;;13.05;8.15;;;;;;;;;;4944847;28;20465;-69
2021/11/22 11:20:00;;;;;;;13.38;7.78;;;;;;;;;;4958601;28;20055;-65
2021/11/22 11:22:28;;;;;;;13.93;8.07;;;;;;;;;;4963447;28;20050;-65
2021/11/22 11:24:59;;;;;;;13.40;8.35;;;;;;;;;;4962551;28;20051;-67
2021/11/22 11:27:33;;;;;;;15.93;7.68;;;;;;;;;;4958712;28;20047;-68
2021/11/22 11:30:00;;;;;;;10.57;8.10;;;;;;;;;;4957705;28;20098;-69
2021/11/22 11:32:28;;;;;;;11.90;7.57;;;;;;;;;;4957365;28;20050;-67
2021/11/22 11:34:55;;;;;;;12.13;7.40;;;;;;;;;;4960154;28;20058;-67
2021/11/22 11:37:40;;;;;;;17.88;7.72;;;;;;;;;;4957048;28;20047;-66
2021/11/22 11:40:28;;;;;;;10.95;7.68;;;;;;;;;;4961127;28;20110;-65
2021/11/22 11:43:27;;;;;;;10.48;6.80;;;;;;;;;;4965525;28;20416;-70
2021/11/22 11:46:18;;;;;;;13.90;8.07;;;;;;;;;;4963632;28;20106;-71
2021/11/22 11:48:50;;;;;;;13.13;7.13;;;;;;;;;;4961357;28;20047;-69
2021/11/22 11:51:20;;;;;;;12.02;7.95;;;;;;;;;;4961696;28;20561;-70
2021/11/22 11:54:06;;;;;;;14.18;7.43;;;;;;;;;;4963843;28;20054;-70
2021/11/22 11:56:34;;;;;;;11.30;6.43;;;;;;;;;;4957816;28;20055;-71
2021/11/22 11:59:41;;;;;;;12.40;6.63;;;;;;;;;;4957820;28;20082;-68
2021/11/22 12:02:29;;;;;;;9.32;6.25;;;;;;;;;;4923870;29;20478;-70
2021/11/22 12:05:02;;;;;;;9.10;5.80;;;;;;;;;;4941925;28;20063;-68
2021/11/22 12:07:32;;;;;;;9.75;5.80;;;;;;;;;;4944477;28;20051;-66
2021/11/22 12:10:23;;;;;;;11.00;6.40;;;;;;;;;;4965735;28;20138;-65
2021/11/22 12:12:59;;;;;;;12.10;6.20;;;;;;;;;;4964577;28;20082;-68
2021/11/22 12:15:31;;;;;;;10.52;6.18;;;;;;;;;;4962855;28;20043;-67
2021/11/22 12:18:29;;;;;;;9.85;6.05;;;;;;;;;;4965478;28;20491;-69
2021/11/22 12:20:58;;;;;;;11.75;6.20;;;;;;;;;;4963570;28;20102;-70
2021/11/22 12:23:28;;;;;;;10.55;6.90;;;;;;;;;;4963390;28;20516;-69
2021/11/22 12:26:00;;;;;;;13.20;7.13;;;;;;;;;;4961845;28;20774;-66
2021/11/22 12:28:30;;;;;;;10.68;6.57;;;;;;;;;;4964699;28;20097;-67
2021/11/22 12:31:10;;;;;;;11.07;6.70;;;;;;;;;;4962317;28;20055;-69
2021/11/22 12:33:45;;;;;;;11.18;6.60;;;;;;;;;;4962469;28;20437;-68
2021/11/22 12:36:12;;;;;;;11.23;6.57;;;;;;;;;;4961189;28;20059;-66
2021/11/22 12:38:41;;;;;;;8.20;6.03;;;;;;;;;;4963363;28;20047;-67
2021/11/22 12:41:30;;;;;;;8.55;6.10;;;;;;;;;;4962136;28;20142;-66
2021/11/22 12:43:57;;;;;;;8.50;5.93;;;;;;;;;;4963256;28;20075;-66
2021/11/22 12:46:55;;;;;;;13.50;7.13;;;;;;;;;;4965425;28;20059;-67
2021/11/22 12:49:42;;;;;;;7.50;5.60;;;;;;;;;;4965109;28;20043;-67
2021/11/22 12:52:24;;;;;;;11.10;5.55;;;;;;;;;;4962624;28;20054;-66
2021/11/22 12:55:10;;;;;;;11.30;5.80;;;;;;;;;;4961519;28;20047;-66
2021/11/22 12:57:39;;;;;;;11.25;6.57;;;;;;;;;;4961397;28;20051;-66
2021/11/22 13:00:25;;;;;;;13.23;6.57;;;;;;;;;;4962661;28;20171;-66
2021/11/22 13:02:58;;;;;;;14.00;7.18;;;;;;;;;;4967414;28;20062;-65
2021/11/22 13:05:56;;;;;;;12.15;5.85;;;;;;;;;;4959351;28;20128;-67
2021/11/22 13:08:23;;;;;;;10.90;5.97;;;;;;;;;;4963293;28;20494;-67
2021/11/22 13:11:10;;;;;;;9.20;6.13;;;;;;;;;;4964331;28;20403;-70
2021/11/22 13:16:17;;;;;;;12.27;6.20;;;;;;;;;;4963132;28;20395;-67
2021/11/22 13:18:52;;;;;;;6.82;5.63;;;;;;;;;;4965492;28;20490;-68
2021/11/22 13:21:31;;;;;;;10.85;5.55;;;;;;;;;;4967513;28;20054;-70
2021/11/22 13:24:05;;;;;;;6.97;5.32;;;;;;;;;;4968426;28;20079;-68
2021/11/22 13:26:32;;;;;;;7.80;5.43;;;;;;;;;;4960260;28;20046;-68
2021/11/22 13:29:23;;;;;;;11.27;5.90;;;;;;;;;;4962653;28;20047;-69
2021/11/22 13:31:51;;;;;;;9.60;5.00;;;;;;;;;;4961991;28;20051;-66
2021/11/22 13:34:23;;;;;;;7.80;4.90;;;;;;;;;;4959907;28;20078;-67
2021/11/22 13:36:59;;;;;;;5.63;4.88;;;;;;;;;;4949672;28;20054;-69
2021/11/22 13:39:31;;;;;;;7.68;5.20;;;;;;;;;;4960889;28;20488;-67
2021/11/22 13:42:09;;;;;;;9.10;5.20;;;;;;;;;;4960329;28;20106;-66
2021/11/22 13:44:39;;;;;;;6.85;5.20;;;;;;;;;;4962248;28;20050;-69
2021/11/22 13:47:08;;;;;;;6.93;4.75;;;;;;;;;;4958870;28;20775;-66
2021/11/22 13:49:37;;;;;;;6.53;5.75;;;;;;;;;;4960063;28;20044;-70
2021/11/22 13:52:16;;;;;;;5.93;4.63;;;;;;;;;;4948752;28;20502;-67
2021/11/22 13:54:43;;;;;;;7.93;4.70;;;;;;;;;;4964095;28;20409;-67
2021/11/22 13:57:11;;;;;;;8.77;5.80;;;;;;;;;;4961789;28;20047;-66
2021/11/22 13:59:39;;;;;;;6.70;5.10;;;;;;;;;;4959806;28;20051;-67
2021/11/22 14:02:11;;;;;;;10.43;6.03;;;;;;;;;;4967949;28;20105;-69
2021/11/22 14:04:43;;;;;;;7.75;4.93;;;;;;;;;;4961051;28;20082;-68
2021/11/22 14:07:13;;;;;;;6.85;4.80;;;;;;;;;;4959580;28;20536;-68
2021/11/22 14:09:40;;;;;;;7.35;5.22;;;;;;;;;;4946824;28;20050;-68
2021/11/22 14:12:07;;;;;;;7.13;4.88;;;;;;;;;;4959967;28;20134;-66
2021/11/22 14:15:00;;;;;;;6.57;4.72;;;;;;;;;;4961423;28;20552;-65
2021/11/22 14:17:28;;;;;;;7.07;5.07;;;;;;;;;;4942755;28;20055;-67
2021/11/22 14:20:12;;;;;;;4.93;4.38;;;;;;;;;;4959583;28;20051;-67
2021/11/22 14:22:52;;;;;;;;;;;;;;;;;;4963050;28;20524;-66
2021/11/22 14:25:29;;;;;;;4.95;4.43;;;;;;;;;;4964989;28;19951;-67
2021/11/22 14:28:10;;;;;;;7.72;4.60;;;;;;;;;;4960068;28;20078;-69
2021/11/22 14:30:42;;;;;;;6.18;4.32;;;;;;;;;;4959224;28;20225;-65
2021/11/22 14:33:13;;;;;;;6.50;4.60;;;;;;;;;;4960140;28;20087;-66
2021/11/22 14:35:43;;;;;;;5.90;4.50;;;;;;;;;;4961359;28;20569;-70
2021/11/22 14:38:20;;;;;;;5.85;3.97;;;;;;;;;;4945266;28;20055;-65
2021/11/22 14:40:55;;;;;;;8.10;3.78;;;;;;;;;;4962588;28;20042;-68